Overview Statistics Trail Chart Weather Telemetry Raw packets
 

This is the latest recevied weather packets stored in our database for station/object EA5FOG-11. If no packets are shown the sender has not sent any weather packets the latest 10 day(s).

<< 32 33 34 35 36 37 38 >>
Time Temp. Humidity Pressure Rain* Wind** Luminosity Snow
1787824666 32.78° C 34% 956.4 hPa - - - -
1787823765 32.78° C 34% 956.4 hPa - - - -
1787822864 32.22° C 34% 956.6 hPa - - - -
1787821963 32.22° C 35% 956.4 hPa - - - -
1787821062 32.22° C 35% 956.2 hPa - - - -
1787820162 32.22° C 35% 956.1 hPa - - - -
1787819263 31.67° C 36% 956 hPa - - - -
1787818360 31.11° C 36% 955.8 hPa - - - -
1787817459 26.67° C 41% 955.8 hPa - - - -
1787816559 26.11° C 42% 955.8 hPa - - - -
1787815658 28.33° C 38% 955.7 hPa - - - -
1787814773 26.67° C 40% 955.5 hPa - - - -
1787813873 24.44° C 43% 955.6 hPa - - - -
1787812972 23.89° C 43% 955.5 hPa - - - -
1787812071 23.33° C 43% 955.4 hPa - - - -
1787811170 22.22° C 45% 955.5 hPa - - - -
1787810272 21.11° C 46% 955.3 hPa - - - -
1787809369 20.56° C 46% 955.3 hPa - - - -
1787808468 20.56° C 46% 955.2 hPa - - - -
1787807567 20.56° C 46% 955 hPa - - - -
1787806666 20.56° C 45% 954.5 hPa - - - -
1787805766 20.56° C 45% 954.4 hPa - - - -
1787804865 21.11° C 44% 954.7 hPa - - - -
1787803964 21.11° C 43% 954.9 hPa - - - -
1787803063 21.11° C 43% 954.9 hPa - - - -

* Rain since midnight (hover to see other rain measurements)
** Current wind speed in m/s (hover to see current wind gust speed)